Roth, North Dakota
Current Conditions -  °F | °C
As of 7:58 AM on Monday 24 Nov 2014 (Local Time) from KMIB Reporting Station
Clear Clear  
Wind Chill: -12°   Ceiling: Unl
Heat Index:   Visibility: 10mi
Dew Point: -1°   Wind: 10mph
Humidity: 84%   Direction: 310°NW
Pressure: 29.88"   Gusts: NA
Location:  48.9505°N, 100.734°W
Report Text: KMIB 241358Z AUTO 31009KT 10SM CLR M16/M18 A2988 RMK AO2 SLP161 T11591181
Loading
Personal Weather Stations






























Interactive Weather Map New forecast layout! Learn more

10-Day Weather Forecast

Advertisements
Track Severe Weather on mobile